Time;durP1;ratioP1;P1;durP2;ratioP2;P2;SDS_P1;SDS_P2;PMS_P1;PMS_P2;Temp;Humidity;BMP_temperature;BMP_pressure;BME280_temperature;BME280_humidity;BME280_pressure;Samples;Min_cycle;Max_cycle;Signal;HPM_P1;HPM_P2
2021/10/29 00:01:31;;;;;;;37.83;20.58;;;4.10;99.90;;;;;;5037143;28;20063;-91
2021/10/29 00:03:58;;;;;;;41.00;22.15;;;4.00;99.90;;;;;;5036885;28;20051;-92
2021/10/29 00:06:25;;;;;;;35.45;19.88;;;4.00;99.90;;;;;;5036768;28;20045;-92
2021/10/29 00:08:54;;;;;;;33.83;19.48;;;3.90;99.90;;;;;;5037336;28;20056;-92
2021/10/29 00:11:21;;;;;;;32.85;18.73;;;3.90;99.90;;;;;;5039973;28;20135;-92
2021/10/29 00:13:48;;;;;;;31.50;18.27;;;3.80;99.90;;;;;;5061668;28;20063;-91
2021/10/29 00:16:14;;;;;;;34.55;20.13;;;3.70;99.90;;;;;;5047039;28;20049;-92
2021/10/29 00:18:41;;;;;;;34.25;18.92;;;3.60;99.90;;;;;;5036627;28;20114;-92
2021/10/29 00:21:08;;;;;;;38.55;19.55;;;3.60;99.90;;;;;;5036848;28;20044;-92
2021/10/29 00:23:35;;;;;;;38.30;19.63;;;3.50;99.90;;;;;;5037120;28;20052;-92
2021/10/29 00:26:02;;;;;;;33.35;19.38;;;3.40;99.90;;;;;;5036589;28;20051;-92
2021/10/29 00:28:28;;;;;;;37.55;19.88;;;3.40;99.90;;;;;;5036762;28;20072;-91
2021/10/29 00:30:55;;;;;;;34.03;19.75;;;3.40;99.90;;;;;;5036725;28;20132;-92
2021/10/29 00:33:23;;;;;;;36.70;19.83;;;3.30;99.90;;;;;;5036711;28;20170;-92
2021/10/29 00:35:49;;;;;;;44.17;20.92;;;3.30;99.90;;;;;;5038813;28;20055;-92
2021/10/29 00:38:30;;;;;;;37.78;19.17;;;3.20;99.90;;;;;;5041831;28;20048;-92
2021/10/29 00:40:57;;;;;;;32.90;19.08;;;3.10;99.90;;;;;;5036366;28;20584;-91
2021/10/29 00:43:25;;;;;;;37.00;19.63;;;3.10;99.90;;;;;;5036481;28;20048;-92
2021/10/29 00:45:51;;;;;;;38.30;20.67;;;3.10;99.90;;;;;;5036018;28;20051;-91
2021/10/29 00:48:18;;;;;;;53.47;22.33;;;3.10;99.90;;;;;;5036250;28;20049;-91
2021/10/29 00:50:46;;;;;;;46.35;21.40;;;3.00;99.90;;;;;;5036665;28;20504;-92
2021/10/29 00:53:13;;;;;;;36.10;19.95;;;3.00;99.90;;;;;;5036362;28;20053;-92
2021/10/29 00:55:41;;;;;;;42.47;20.98;;;3.00;99.90;;;;;;5035592;28;20405;-91
2021/10/29 00:58:08;;;;;;;38.47;18.73;;;2.90;99.90;;;;;;5035625;28;20053;-92
2021/10/29 01:00:34;;;;;;;44.88;21.25;;;2.90;99.90;;;;;;5036348;28;20052;-92
2021/10/29 01:03:01;;;;;;;39.33;20.52;;;2.80;99.90;;;;;;5036183;28;20107;-92
2021/10/29 01:05:29;;;;;;;38.15;20.05;;;2.80;99.90;;;;;;5036001;28;20052;-91
2021/10/29 01:07:57;;;;;;;44.92;21.50;;;2.80;99.90;;;;;;5035982;28;20052;-91
2021/10/29 01:10:28;;;;;;;46.67;21.00;;;2.70;99.90;;;;;;5035808;28;20049;-92
2021/10/29 01:12:55;;;;;;;38.45;19.63;;;2.70;99.90;;;;;;5036166;28;20060;-91
2021/10/29 01:15:23;;;;;;;40.80;19.60;;;2.70;99.90;;;;;;5036110;28;20128;-91
2021/10/29 01:17:49;;;;;;;38.78;20.05;;;2.60;99.90;;;;;;5036247;28;20049;-91
2021/10/29 01:20:20;;;;;;;42.20;20.77;;;2.60;99.90;;;;;;5036166;28;20059;-91
2021/10/29 01:22:47;;;;;;;38.30;19.23;;;2.50;99.90;;;;;;5035798;28;20045;-91
2021/10/29 01:25:15;;;;;;;51.10;21.58;;;2.50;99.90;;;;;;5035782;28;20049;-91
2021/10/29 01:27:42;;;;;;;37.85;18.48;;;2.40;99.90;;;;;;5036092;28;20144;-92
2021/10/29 01:30:10;;;;;;;44.60;19.73;;;2.50;99.90;;;;;;5042275;28;20092;-91
2021/10/29 01:32:38;;;;;;;40.47;19.85;;;2.40;99.90;;;;;;5060812;28;20060;-91
2021/10/29 01:35:09;;;;;;;37.33;19.52;;;2.30;99.90;;;;;;5042736;28;20055;-91
2021/10/29 01:37:39;;;;;;;40.78;20.10;;;2.40;99.90;;;;;;5035935;28;20405;-91
2021/10/29 01:40:08;;;;;;;38.45;19.48;;;2.40;99.90;;;;;;5035241;28;20052;-91
2021/10/29 01:42:36;;;;;;;37.10;19.05;;;2.40;99.90;;;;;;5035899;28;20049;-91
2021/10/29 01:45:07;;;;;;;50.90;22.00;;;2.40;99.90;;;;;;5035613;28;20059;-92
2021/10/29 01:47:35;;;;;;;63.97;23.85;;;2.40;99.90;;;;;;5035650;28;20057;-90
2021/10/29 01:50:03;;;;;;;51.70;23.48;;;2.50;99.90;;;;;;5035375;28;20079;-92
2021/10/29 01:52:29;;;;;;;43.88;21.27;;;2.40;99.90;;;;;;5035657;28;20055;-91
2021/10/29 01:54:56;;;;;;;44.78;21.17;;;2.40;99.90;;;;;;5035568;28;20057;-91
2021/10/29 01:57:23;;;;;;;38.33;20.30;;;2.50;99.90;;;;;;5035594;28;20140;-90
2021/10/29 01:59:50;;;;;;;49.85;20.75;;;2.40;99.90;;;;;;5035126;28;20256;-91
2021/10/29 02:02:16;;;;;;;50.40;20.40;;;2.40;99.90;;;;;;5035626;28;20059;-91
2021/10/29 02:04:43;;;;;;;42.75;20.40;;;2.30;99.90;;;;;;5035706;28;20506;-91
2021/10/29 02:07:10;;;;;;;38.58;19.55;;;2.40;99.90;;;;;;5035583;28;20045;-91
2021/10/29 02:09:37;;;;;;;37.78;19.20;;;2.40;99.90;;;;;;5039274;28;20056;-91
2021/10/29 02:12:04;;;;;;;69.60;20.77;;;2.40;99.90;;;;;;5038806;28;20136;-90
2021/10/29 02:14:31;;;;;;;43.35;20.65;;;2.20;99.90;;;;;;5039498;28;20059;-91
2021/10/29 02:16:58;;;;;;;53.47;21.77;;;2.30;99.90;;;;;;5039222;28;20143;-91
2021/10/29 02:19:24;;;;;;;49.60;21.25;;;2.30;99.90;;;;;;5038938;28;20489;-91
2021/10/29 02:21:52;;;;;;;53.47;20.55;;;2.30;99.90;;;;;;5039319;28;20045;-91
2021/10/29 02:24:19;;;;;;;46.42;19.10;;;2.30;99.90;;;;;;5039076;28;20132;-91
2021/10/29 02:26:46;;;;;;;47.78;20.02;;;2.20;99.90;;;;;;5038662;28;20036;-91
2021/10/29 02:29:13;;;;;;;56.08;22.63;;;2.20;99.90;;;;;;5038990;28;20059;-91
2021/10/29 02:31:40;;;;;;;53.97;20.63;;;2.20;99.90;;;;;;5038669;28;20060;-91
2021/10/29 02:34:07;;;;;;;38.90;18.95;;;2.20;99.90;;;;;;5038643;28;20386;-91
2021/10/29 02:36:34;;;;;;;40.90;18.50;;;2.10;99.90;;;;;;5038662;28;20124;-91
2021/10/29 02:39:01;;;;;;;53.33;20.98;;;2.10;99.90;;;;;;5036045;28;20053;-91
2021/10/29 02:41:28;;;;;;;41.58;19.65;;;2.10;99.90;;;;;;5018814;28;20632;-91
2021/10/29 02:43:54;;;;;;;39.95;18.85;;;2.10;99.90;;;;;;5018952;28;20063;-91
2021/10/29 02:46:21;;;;;;;34.03;18.25;;;2.10;99.90;;;;;;5018979;28;20045;-91
2021/10/29 02:48:48;;;;;;;47.13;19.58;;;2.00;99.90;;;;;;5023481;28;20052;-91
2021/10/29 02:51:15;;;;;;;42.22;19.02;;;1.90;99.90;;;;;;5043288;28;20093;-91
2021/10/29 02:53:43;;;;;;;42.28;19.80;;;1.90;99.90;;;;;;5026353;28;20050;-90
2021/10/29 02:56:10;;;;;;;37.35;18.45;;;1.90;99.90;;;;;;5018472;28;20478;-91
2021/10/29 02:58:36;;;;;;;31.50;16.98;;;1.90;99.90;;;;;;5018439;28;20136;-91
2021/10/29 03:01:03;;;;;;;36.00;18.55;;;1.90;99.90;;;;;;5018577;28;20061;-91
2021/10/29 03:03:30;;;;;;;37.92;17.65;;;2.00;99.90;;;;;;5018496;28;20108;-92
2021/10/29 03:05:57;;;;;;;33.53;16.85;;;2.00;99.90;;;;;;5017916;28;20079;-91
2021/10/29 03:08:24;;;;;;;30.15;15.82;;;1.90;99.90;;;;;;5018268;28;20108;-89
2021/10/29 03:10:52;;;;;;;32.05;16.83;;;1.90;99.90;;;;;;5018278;28;20059;-91
2021/10/29 03:13:20;;;;;;;39.17;18.83;;;1.80;99.90;;;;;;5018583;28;20683;-91
2021/10/29 03:15:49;;;;;;;44.70;17.95;;;1.80;99.90;;;;;;5017996;28;20056;-91
2021/10/29 03:18:20;;;;;;;72.03;22.73;;;1.80;99.90;;;;;;5017998;28;20405;-90
2021/10/29 03:20:47;;;;;;;45.58;20.15;;;1.70;99.90;;;;;;5018000;28;20061;-91
2021/10/29 03:23:16;;;;;;;41.70;19.20;;;1.70;99.90;;;;;;5018105;28;20087;-91
2021/10/29 03:25:44;;;;;;;45.97;19.15;;;1.90;99.90;;;;;;5017884;28;20049;-91
2021/10/29 03:28:12;;;;;;;34.03;18.08;;;1.80;99.90;;;;;;5017563;28;20136;-90
2021/10/29 03:30:39;;;;;;;44.05;18.55;;;1.80;99.90;;;;;;5018106;28;20045;-89
2021/10/29 03:33:06;;;;;;;62.90;23.25;;;1.80;99.90;;;;;;5017840;28;20053;-90
2021/10/29 03:35:33;;;;;;;47.25;20.85;;;1.70;99.90;;;;;;5017877;28;20497;-91
2021/10/29 03:43:48;;;;;;;34.75;17.10;;;1.80;99.90;;;;;;4993819;28;20042;-91
2021/10/29 03:46:19;;;;;;;45.17;18.00;;;1.80;99.90;;;;;;5014294;28;20516;-90
2021/10/29 03:51:37;;;;;;;39.95;18.60;;;1.70;99.90;;;;;;5035223;28;20053;-90
2021/10/29 03:54:38;;;;;;;35.90;18.10;;;1.50;99.90;;;;;;5017596;28;20056;-89
2021/10/29 03:59:28;;;;;;;55.85;19.70;;;1.60;99.90;;;;;;5034952;28;20045;-90
2021/10/29 04:01:55;;;;;;;45.67;19.33;;;1.60;99.90;;;;;;5017441;28;20132;-90
2021/10/29 04:04:22;;;;;;;42.92;18.58;;;1.60;99.90;;;;;;5017460;28;20049;-90
2021/10/29 04:06:49;;;;;;;44.75;19.45;;;1.60;99.90;;;;;;5018412;28;20059;-91
2021/10/29 04:09:16;;;;;;;39.00;17.58;;;1.60;99.90;;;;;;5034397;28;20077;-90
2021/10/29 04:11:42;;;;;;;35.97;18.20;;;1.50;99.90;;;;;;5031549;28;20477;-90
2021/10/29 04:14:11;;;;;;;35.13;16.45;;;1.50;99.90;;;;;;5016934;28;20490;-90
2021/10/29 04:16:40;;;;;;;31.75;16.40;;;1.40;99.90;;;;;;5017002;28;20136;-88
2021/10/29 04:19:09;;;;;;;48.75;18.48;;;1.40;99.90;;;;;;5016997;28;20063;-90
2021/10/29 04:21:37;;;;;;;45.70;19.33;;;1.20;99.90;;;;;;5016905;28;20144;-91
2021/10/29 04:24:05;;;;;;;39.75;18.30;;;1.20;99.90;;;;;;5033851;28;20132;-90
2021/10/29 04:26:33;;;;;;;28.15;15.55;;;1.30;99.90;;;;;;5016619;28;20156;-91
2021/10/29 04:29:01;;;;;;;30.88;15.90;;;1.30;99.90;;;;;;5034123;28;20056;-90
2021/10/29 04:31:31;;;;;;;34.67;15.70;;;1.20;99.90;;;;;;5017068;28;20047;-90
2021/10/29 04:33:58;;;;;;;42.40;17.08;;;1.20;99.90;;;;;;5033881;28;20061;-90
2021/10/29 04:36:25;;;;;;;32.95;16.23;;;1.20;99.90;;;;;;5016326;28;20081;-90
2021/10/29 04:38:55;;;;;;;36.30;15.63;;;1.20;99.90;;;;;;5016946;28;20053;-90
2021/10/29 04:41:22;;;;;;;33.92;15.90;;;1.30;99.90;;;;;;5033992;28;20046;-91
2021/10/29 04:43:48;;;;;;;28.55;14.95;;;1.20;99.90;;;;;;5016621;28;20140;-91
2021/10/29 04:46:15;;;;;;;35.13;15.27;;;1.20;99.90;;;;;;5013961;28;20041;-90
2021/10/29 04:48:43;;;;;;;33.22;16.15;;;1.20;99.90;;;;;;5016304;28;20045;-90
2021/10/29 04:51:09;;;;;;;32.65;16.10;;;1.10;99.90;;;;;;5033824;28;20055;-90
2021/10/29 04:53:36;;;;;;;34.83;17.80;;;1.10;99.90;;;;;;5034022;28;20410;-90
2021/10/29 04:56:04;;;;;;;40.63;19.45;;;1.00;99.90;;;;;;5016173;28;20081;-90
2021/10/29 04:58:31;;;;;;;47.30;19.50;;;1.00;99.90;;;;;;5016518;28;20053;-90
2021/10/29 05:00:58;;;;;;;40.38;17.88;;;1.00;99.90;;;;;;5016468;28;20517;-90
2021/10/29 05:03:25;;;;;;;38.80;17.67;;;1.00;99.90;;;;;;5016677;28;20126;-89
2021/10/29 05:05:52;;;;;;;39.28;16.90;;;0.90;99.90;;;;;;5016154;28;20045;-90
2021/10/29 05:08:18;;;;;;;41.33;18.50;;;0.90;99.90;;;;;;5016309;28;20136;-90
2021/10/29 05:10:45;;;;;;;43.88;17.95;;;0.90;99.90;;;;;;5016342;28;20049;-89
2021/10/29 05:13:12;;;;;;;31.67;16.02;;;0.90;99.90;;;;;;5016271;28;20049;-89
2021/10/29 05:15:39;;;;;;;33.25;16.20;;;0.90;99.90;;;;;;5016266;28;20059;-90
2021/10/29 05:18:05;;;;;;;35.05;17.67;;;0.80;99.90;;;;;;5015707;28;20553;-90
2021/10/29 05:20:32;;;;;;;36.92;17.58;;;0.80;99.90;;;;;;5016078;28;20045;-90
2021/10/29 05:22:59;;;;;;;44.30;17.38;;;0.90;99.90;;;;;;5016287;28;20076;-90
2021/10/29 05:25:25;;;;;;;39.92;16.90;;;0.90;99.90;;;;;;5016903;28;20059;-90
2021/10/29 05:27:52;;;;;;;46.63;17.73;;;0.80;99.90;;;;;;5030727;28;20105;-88
2021/10/29 05:30:20;;;;;;;39.53;15.88;;;0.80;99.90;;;;;;5027222;28;20153;-90
2021/10/29 05:32:47;;;;;;;27.20;14.85;;;0.80;99.90;;;;;;5016323;28;20059;-89
2021/10/29 05:35:14;;;;;;;35.63;15.65;;;0.70;99.90;;;;;;5015987;28;20057;-90
2021/10/29 05:37:40;;;;;;;40.13;15.35;;;0.70;99.90;;;;;;5016341;28;20136;-89
2021/10/29 05:40:08;;;;;;;291.05;199.93;;;0.60;99.90;;;;;;5027712;28;20148;-89
2021/10/29 05:42:35;;;;;;;45.70;19.67;;;0.60;99.90;;;;;;5037626;28;20048;-90
2021/10/29 05:45:05;;;;;;;46.05;20.45;;;0.60;99.90;;;;;;5039521;28;20059;-89
2021/10/29 05:47:32;;;;;;;61.92;26.35;;;0.60;99.90;;;;;;5039342;28;20127;-90
2021/10/29 05:49:59;;;;;;;36.50;16.75;;;0.50;99.90;;;;;;5039307;28;20513;-89
2021/10/29 05:52:30;;;;;;;41.33;16.42;;;0.50;99.90;;;;;;5039732;28;20048;-90
2021/10/29 05:57:47;;;;;;;33.08;14.48;;;0.40;99.90;;;;;;5057183;28;20079;-90
2021/10/29 06:00:16;;;;;;;42.53;18.08;;;0.40;99.90;;;;;;5039338;28;20139;-89
2021/10/29 06:02:44;;;;;;;49.67;20.15;;;0.40;99.90;;;;;;5030633;28;20044;-90
2021/10/29 06:05:11;;;;;;;40.53;17.13;;;0.40;99.90;;;;;;5028589;28;20067;-89
2021/10/29 06:07:39;;;;;;;122.82;96.95;;;0.40;99.90;;;;;;5027638;28;20041;-90
2021/10/29 06:10:08;;;;;;;54.78;33.33;;;0.30;99.90;;;;;;5026642;28;20063;-89
2021/10/29 06:12:37;;;;;;;39.22;21.30;;;0.40;99.90;;;;;;5027754;28;20136;-90
2021/10/29 06:15:06;;;;;;;33.05;17.50;;;0.30;99.90;;;;;;5038904;28;20136;-90
2021/10/29 06:17:33;;;;;;;50.65;20.20;;;0.40;99.90;;;;;;5039146;28;20060;-90
2021/10/29 06:20:01;;;;;;;42.10;18.60;;;0.40;99.90;;;;;;5038970;28;20053;-89
2021/10/29 06:22:34;;;;;;;44.45;20.85;;;0.40;99.90;;;;;;5039017;28;20045;-89
2021/10/29 06:25:09;;;;;;;42.03;20.40;;;0.40;99.90;;;;;;5027232;28;20136;-89
2021/10/29 06:30:04;;;;;;;59.80;21.98;;;0.40;99.90;;;;;;5055940;28;20140;-89
2021/10/29 06:32:31;;;;;;;54.88;22.65;;;0.50;99.90;;;;;;5038743;28;20041;-90
2021/10/29 06:34:58;;;;;;;44.08;20.42;;;0.50;99.90;;;;;;5038706;28;20075;-90
2021/10/29 06:37:25;;;;;;;44.15;18.20;;;0.60;99.90;;;;;;5038692;28;20040;-89
2021/10/29 06:39:52;;;;;;;50.25;19.67;;;0.70;99.90;;;;;;5038124;28;20409;-89
2021/10/29 06:42:31;;;;;;;61.75;19.92;;;0.80;99.90;;;;;;5038387;28;20135;-90
2021/10/29 06:45:36;;;;;;;36.28;17.25;;;0.70;99.90;;;;;;5042153;28;20147;-90
2021/10/29 06:48:32;;;;;;;39.72;16.60;;;0.80;99.90;;;;;;5074241;28;20064;-89
2021/10/29 06:59:15;;;;;;;37.75;17.98;;;0.80;99.90;;;;;;5044264;28;20055;-90
2021/10/29 07:42:32;;;;;;;47.47;24.30;;;1.60;99.90;;;;;;5034999;28;20048;-87
2021/10/29 07:44:59;;;;;;;58.05;25.25;;;1.70;99.90;;;;;;5017673;28;20057;-89
2021/10/29 07:47:25;;;;;;;60.72;24.30;;;1.80;99.90;;;;;;5017438;28;20113;-89
2021/10/29 07:49:53;;;;;;;46.08;22.58;;;1.80;99.90;;;;;;5017496;28;20549;-89
2021/10/29 07:52:20;;;;;;;49.83;22.55;;;1.90;99.90;;;;;;5017294;28;20128;-89
2021/10/29 07:54:47;;;;;;;54.85;21.90;;;2.00;99.90;;;;;;5017155;28;20103;-89
2021/10/29 07:57:18;;;;;;;59.67;24.08;;;2.10;99.90;;;;;;5017380;28;20059;-89
2021/10/29 07:59:52;;;;;;;75.75;25.90;;;2.10;99.90;;;;;;5017074;28;20060;-89
2021/10/29 08:02:21;;;;;;;64.32;24.60;;;2.10;99.90;;;;;;5005710;28;20048;-89
2021/10/29 08:04:47;;;;;;;71.78;26.38;;;2.10;99.90;;;;;;5025635;28;20037;-90
2021/10/29 08:07:15;;;;;;;81.10;28.70;;;2.40;99.90;;;;;;5030791;28;20070;-89
2021/10/29 08:09:44;;;;;;;304.77;70.40;;;2.90;99.90;;;;;;5017088;28;20096;-89
2021/10/29 08:12:12;;;;;;;1381.68;259.42;;;3.90;99.90;;;;;;5016975;28;20488;-89
2021/10/29 08:14:39;;;;;;;265.27;61.00;;;5.30;99.90;;;;;;5017009;28;20049;-90
2021/10/29 08:17:06;;;;;;;1061.40;205.05;;;6.10;99.90;;;;;;5016950;28;20053;-90
2021/10/29 08:19:33;;;;;;;1999.90;493.73;;;6.90;99.90;;;;;;5017009;28;20041;-90
2021/10/29 08:22:02;;;;;;;1321.85;303.67;;;7.50;99.90;;;;;;5016585;28;20049;-90
2021/10/29 08:24:30;;;;;;;94.10;40.40;;;7.60;99.90;;;;;;5016645;28;20136;-91
2021/10/29 08:26:57;;;;;;;101.32;44.03;;;6.90;99.90;;;;;;5016783;28;20054;-90
2021/10/29 08:29:25;;;;;;;93.82;35.40;;;6.60;99.90;;;;;;5016841;28;20045;-91
2021/10/29 08:31:52;;;;;;;57.83;26.52;;;6.50;99.90;;;;;;5016680;28;20136;-90
2021/10/29 08:34:22;;;;;;;66.97;24.90;;;6.60;99.90;;;;;;5016854;28;20076;-90
2021/10/29 08:36:49;;;;;;;78.43;24.00;;;6.80;99.90;;;;;;5016858;28;20049;-90
2021/10/29 08:39:16;;;;;;;52.15;19.15;;;7.20;99.90;;;;;;5016622;28;20482;-91
2021/10/29 08:41:43;;;;;;;48.65;17.27;;;7.30;99.90;;;;;;5032858;28;20052;-90
2021/10/29 08:44:12;;;;;;;22.83;13.07;;;7.90;99.90;;;;;;5034049;28;20107;-91
2021/10/29 08:46:43;;;;;;;66.38;15.68;;;8.40;99.90;;;;;;5032450;28;20056;-90
2021/10/29 08:49:11;;;;;;;40.47;10.77;;;8.70;99.90;;;;;;5032998;28;20049;-88
2021/10/29 08:51:39;;;;;;;18.42;9.50;;;9.00;99.90;;;;;;5032936;28;20057;-89
2021/10/29 08:54:06;;;;;;;19.52;7.03;;;9.30;99.90;;;;;;5032721;28;20049;-88
2021/10/29 08:56:34;;;;;;;16.50;6.70;;;10.30;99.90;;;;;;5032906;28;20072;-88
2021/10/29 08:59:18;;;;;;;10.48;5.85;;;11.90;99.90;;;;;;5032574;28;20525;-88
2021/10/29 09:04:41;;;;;;;7.47;4.68;;;14.00;99.90;;;;;;5033451;28;20417;-88
2021/10/29 09:07:19;;;;;;;16.70;11.18;;;15.60;99.90;;;;;;5032411;28;20042;-88
2021/10/29 09:10:19;;;;;;;7.07;4.32;;;15.30;99.90;;;;;;5032383;28;20132;-88
2021/10/29 09:33:09;;;;;;;;;;;22.20;90.90;;;;;;5042520;28;20045;-82
2021/10/29 09:35:37;;;;;;;3.55;3.25;;;22.80;87.20;;;;;;5042089;28;20011;-83
2021/10/29 09:38:09;;;;;;;6.45;3.30;;;24.10;77.80;;;;;;5040139;28;20135;-83
2021/10/29 09:41:02;;;;;;;19.20;4.50;;;25.80;71.80;;;;;;5040782;28;20117;-83
2021/10/29 09:43:33;;;;;;;6.30;3.30;;;25.60;69.10;;;;;;5029958;28;20213;-82
2021/10/29 09:46:02;;;;;;;6.47;3.70;;;24.70;70.70;;;;;;5040266;28;20202;-81
2021/10/29 09:48:48;;;;;;;4.10;2.92;;;23.80;74.20;;;;;;5039889;28;20053;-82
2021/10/29 09:51:21;;;;;;;3.92;3.33;;;23.70;76.40;;;;;;5039853;28;20054;-83
2021/10/29 09:58:57;;;;;;;15.38;4.07;;;25.80;71.40;;;;;;5042191;28;20132;-83
2021/10/29 10:01:26;;;;;;;9.75;3.10;;;26.50;66.70;;;;;;5040841;28;20084;-83
2021/10/29 10:03:53;;;;;;;5.63;2.83;;;27.00;66.50;;;;;;5041370;28;20049;-83
2021/10/29 10:06:24;;;;;;;4.15;2.75;;;26.80;66.90;;;;;;5041258;28;20037;-83
2021/10/29 10:08:56;;;;;;;6.55;3.13;;;26.90;65.00;;;;;;5040310;28;20487;-83
2021/10/29 10:11:28;;;;;;;15.18;4.13;;;28.80;61.30;;;;;;5037727;28;20072;-82
2021/10/29 10:13:56;;;;;;;9.48;4.18;;;28.30;59.20;;;;;;5039900;28;20110;-83
2021/10/29 10:16:30;;;;;;;10.70;4.10;;;28.50;58.90;;;;;;5039162;28;20055;-82
2021/10/29 10:18:57;;;;;;;8.25;3.20;;;27.40;60.10;;;;;;5039996;28;20134;-83
2021/10/29 10:21:26;;;;;;;10.20;3.42;;;28.80;58.90;;;;;;5040009;28;20405;-81
2021/10/29 10:23:56;;;;;;;8.00;3.65;;;29.00;58.10;;;;;;5039981;28;20132;-84
2021/10/29 10:29:28;;;;;;;16.48;5.03;;;27.50;56.00;;;;;;5035911;28;20060;-83
2021/10/29 10:46:05;;;;;;;11.10;4.40;;;25.70;61.00;;;;;;5035088;28;20052;-83
2021/10/29 10:48:35;;;;;;;6.47;4.47;;;27.50;58.50;;;;;;5017134;28;20053;-82
2021/10/29 10:51:33;;;;;;;5.10;3.20;;;26.80;55.90;;;;;;5018091;28;20053;-83
2021/10/29 10:54:40;;;;;;;3.30;2.90;;;28.00;56.30;;;;;;5017560;28;20085;-83
2021/10/29 10:59:56;;;;;;;4.30;3.28;;;28.50;55.40;;;;;;5028728;28;20138;-82
2021/10/29 11:10:02;;;;;;;5.32;3.38;;;29.10;52.60;;;;;;5814497;22;20044;-90
2021/10/29 11:12:41;;;;;;;7.35;3.13;;;30.30;50.30;;;;;;5018455;28;20080;-92
2021/10/29 11:15:14;;;;;;;3.58;3.20;;;29.50;51.10;;;;;;5018254;28;20144;-89
2021/10/29 11:18:20;;;;;;;5.32;3.80;;;29.00;50.30;;;;;;5012452;28;20050;-90
2021/10/29 11:20:50;;;;;;;6.47;3.70;;;25.50;54.30;;;;;;4937515;29;20083;-91
2021/10/29 11:23:21;;;;;;;3.85;3.20;;;25.60;55.60;;;;;;4937654;29;20051;-92
2021/10/29 11:26:03;;;;;;;3.72;3.33;;;25.50;55.50;;;;;;4995719;28;20079;-90
2021/10/29 11:28:41;;;;;;;8.98;3.00;;;26.00;55.90;;;;;;5016438;28;20048;-88
2021/10/29 11:31:11;;;;;;;11.90;2.45;;;26.30;55.10;;;;;;5017862;28;20136;-90
2021/10/29 11:33:44;;;;;;;8.27;3.35;;;26.30;54.70;;;;;;5018083;28;20107;-89
2021/10/29 11:36:14;;;;;;;2.57;2.40;;;26.60;53.70;;;;;;5017922;28;20059;-88
2021/10/29 11:38:43;;;;;;;3.88;2.50;;;26.10;54.30;;;;;;5018549;28;20143;-88
2021/10/29 11:41:13;;;;;;;2.30;2.20;;;26.80;53.00;;;;;;5018694;28;20049;-90
2021/10/29 11:43:40;;;;;;;2.60;2.38;;;27.10;51.80;;;;;;5017725;28;20045;-88
2021/10/29 11:46:11;;;;;;;5.30;2.40;;;26.80;51.80;;;;;;5017555;28;20885;-89
2021/10/29 11:49:06;;;;;;;6.45;2.33;;;26.30;52.70;;;;;;5017694;28;20084;-89
2021/10/29 11:51:35;;;;;;;2.78;2.47;;;26.20;52.70;;;;;;5018004;28;20049;-89
2021/10/29 11:54:26;;;;;;;3.20;2.72;;;25.90;53.10;;;;;;5017695;28;20383;-87
2021/10/29 11:57:47;;;;;;;4.32;2.55;;;25.50;53.70;;;;;;5035086;28;20045;-89
2021/10/29 12:07:35;;;;;;;4.97;2.70;;;24.30;56.80;;;;;;5035164;28;20049;-89
2021/10/29 12:10:08;;;;;;;2.30;2.13;;;23.90;56.80;;;;;;5018709;28;20053;-89
2021/10/29 12:12:40;;;;;;;3.28;2.47;;;23.60;57.00;;;;;;5036833;28;20140;-90
2021/10/29 12:15:14;;;;;;;2.75;2.50;;;23.20;58.10;;;;;;5035237;28;20127;-88
2021/10/29 12:17:58;;;;;;;2.40;2.20;;;23.10;58.30;;;;;;5019699;28;20136;-90
2021/10/29 12:20:32;;;;;;;2.85;2.55;;;22.70;58.00;;;;;;5017369;28;20049;-88
2021/10/29 12:23:06;;;;;;;8.40;2.30;;;22.20;59.30;;;;;;5034505;28;20053;-87
2021/10/29 12:31:26;;;;;;;2.67;1.90;;;21.10;62.40;;;;;;5029016;28;20056;-88
2021/10/29 12:37:03;;;;;;;14.82;2.40;;;20.90;62.20;;;;;;5033763;28;20045;-88
2021/10/29 12:53:54;;;;;;;2.10;2.00;;;19.90;64.80;;;;;;5033565;28;20057;-88
2021/10/29 13:01:58;;;;;;;2.63;2.17;;;19.20;63.40;;;;;;5033888;28;20049;-89
2021/10/29 13:04:43;;;;;;;6.18;2.85;;;18.80;63.00;;;;;;5017120;28;20414;-89
2021/10/29 13:07:10;;;;;;;2.35;1.95;;;18.50;63.70;;;;;;5001387;28;20045;-89
2021/10/29 13:09:39;;;;;;;4.60;2.30;;;18.40;66.40;;;;;;5016731;28;20487;-88
2021/10/29 13:14:41;;;;;;;4.90;2.50;;;18.50;64.20;;;;;;5034271;28;20053;-87
2021/10/29 13:17:12;;;;;;;3.30;2.40;;;18.50;66.00;;;;;;5026576;28;20056;-89
2021/10/29 13:27:57;;;;;;;2.85;2.50;;;18.50;65.20;;;;;;5034086;28;20049;-87
2021/10/29 13:36:12;;;;;;;3.08;2.53;;;18.90;63.00;;;;;;5034232;28;20087;-90
2021/10/29 14:00:39;;;;;;;2.90;2.60;;;19.10;64.80;;;;;;5035341;28;20409;-90
2021/10/29 14:03:28;;;;;;;6.60;2.40;;;19.30;63.50;;;;;;5035604;28;20438;-89
2021/10/29 14:30:18;;;;;;;4.88;2.88;;;18.70;65.80;;;;;;5036696;28;20046;-90
2021/10/29 14:32:52;;;;;;;5.68;2.67;;;18.40;66.30;;;;;;5019832;28;20046;-89
2021/10/29 14:35:26;;;;;;;3.58;3.08;;;18.00;67.90;;;;;;5030555;28;20057;-90
2021/10/29 14:38:06;;;;;;;5.43;3.65;;;17.60;68.20;;;;;;5033566;28;20570;-88
2021/10/29 14:40:49;;;;;;;4.88;3.70;;;17.60;70.10;;;;;;5019213;28;20125;-89
2021/10/29 14:43:30;;;;;;;3.80;3.50;;;17.10;71.00;;;;;;5036371;28;20049;-90
2021/10/29 14:48:43;;;;;;;21.63;4.07;;;16.30;75.50;;;;;;5033734;28;20053;-90
2021/10/29 14:51:50;;;;;;;5.85;3.58;;;16.00;78.00;;;;;;5018650;28;20132;-89
2021/10/29 15:05:29;;;;;;;6.53;3.03;;;12.80;99.90;;;;;;5035836;28;20129;-89
2021/10/29 15:16:29;;;;;;;12.07;4.45;;;11.40;99.90;;;;;;5036943;28;20056;-90
2021/10/29 15:27:13;;;;;;;22.75;5.32;;;10.60;99.90;;;;;;5036108;28;20069;-90
2021/10/29 15:29:50;;;;;;;8.05;5.40;;;10.40;99.90;;;;;;5018946;28;20056;-90
2021/10/29 15:45:51;;;;;;;14.05;6.97;;;9.40;99.90;;;;;;5035273;28;20050;-92
2021/10/29 15:48:24;;;;;;;8.23;6.15;;;9.20;99.90;;;;;;5018096;28;20136;-90
2021/10/29 15:50:51;;;;;;;11.70;6.20;;;9.10;99.90;;;;;;5018718;28;20075;-92
2021/10/29 15:53:18;;;;;;;13.82;5.80;;;8.90;99.90;;;;;;5029715;28;20033;-89
2021/10/29 15:55:57;;;;;;;6.38;4.75;;;8.80;99.90;;;;;;5031056;28;20132;-90
2021/10/29 15:58:36;;;;;;;7.55;5.00;;;8.60;99.90;;;;;;5021002;28;20457;-92
2021/10/29 16:01:09;;;;;;;8.40;5.40;;;8.50;99.90;;;;;;5018735;28;20049;-91
2021/10/29 16:04:06;;;;;;;15.27;6.43;;;8.40;99.90;;;;;;5022354;28;20506;-91
2021/10/29 16:17:25;;;;;;;19.25;8.63;;;7.70;99.90;;;;;;5034638;28;20177;-92
2021/10/29 16:19:52;;;;;;;18.73;9.40;;;7.60;99.90;;;;;;5016899;28;20421;-92
2021/10/29 16:22:25;;;;;;;20.77;10.60;;;7.50;99.90;;;;;;5016789;28;20525;-92
2021/10/29 16:24:57;;;;;;;22.83;12.57;;;7.50;99.90;;;;;;5016702;28;20132;-92
2021/10/29 16:27:25;;;;;;;27.85;15.10;;;7.40;99.90;;;;;;5017526;28;20068;-92
2021/10/29 16:29:52;;;;;;;22.70;13.10;;;7.30;99.90;;;;;;5020792;28;20119;-92
2021/10/29 16:32:28;;;;;;;21.50;12.63;;;7.20;99.90;;;;;;5027926;28;20037;-92
2021/10/29 16:34:55;;;;;;;21.40;13.13;;;7.10;99.90;;;;;;5016710;28;20081;-92
2021/10/29 16:37:21;;;;;;;29.52;14.82;;;7.00;99.90;;;;;;5016840;28;20140;-92
2021/10/29 16:39:49;;;;;;;24.77;13.77;;;6.90;99.90;;;;;;5016799;28;20486;-92
2021/10/29 16:42:19;;;;;;;25.30;15.88;;;6.90;99.90;;;;;;5017232;28;20470;-92
2021/10/29 16:44:46;;;;;;;23.10;13.82;;;6.80;99.90;;;;;;5016721;28;20486;-93
2021/10/29 16:47:13;;;;;;;22.20;11.93;;;6.80;99.90;;;;;;5015773;28;20124;-93
2021/10/29 16:49:40;;;;;;;28.38;10.80;;;6.70;99.90;;;;;;5016626;28;20132;-93
2021/10/29 16:52:07;;;;;;;19.83;11.88;;;6.80;99.90;;;;;;5018253;28;20088;-92
2021/10/29 16:54:34;;;;;;;19.42;11.38;;;6.60;99.90;;;;;;5034076;28;20045;-93
2021/10/29 16:57:00;;;;;;;63.72;15.63;;;6.50;99.90;;;;;;5016346;28;20071;-92
2021/10/29 16:59:33;;;;;;;18.85;10.73;;;6.50;99.90;;;;;;5015828;28;20076;-93
2021/10/29 17:02:00;;;;;;;23.15;11.15;;;6.60;99.90;;;;;;5014649;28;20139;-92
2021/10/29 17:04:27;;;;;;;18.63;11.63;;;6.60;99.90;;;;;;5015128;28;20477;-92
2021/10/29 17:06:53;;;;;;;24.40;11.68;;;6.40;99.90;;;;;;5015519;28;20141;-93
2021/10/29 17:09:20;;;;;;;15.93;11.02;;;6.40;99.90;;;;;;5017894;28;20065;-92
2021/10/29 17:11:47;;;;;;;23.85;12.23;;;6.30;99.90;;;;;;5034012;28;20464;-92
2021/10/29 17:14:14;;;;;;;20.13;12.23;;;6.30;99.90;;;;;;5017532;28;20075;-92
2021/10/29 17:16:41;;;;;;;19.98;11.40;;;6.30;99.90;;;;;;5016564;28;20081;-92
2021/10/29 17:19:08;;;;;;;16.95;13.05;;;6.30;99.90;;;;;;5016502;28;20049;-92
2021/10/29 17:21:35;;;;;;;17.30;11.77;;;6.30;99.90;;;;;;5016303;28;20045;-93
2021/10/29 17:24:02;;;;;;;17.70;12.05;;;6.30;99.90;;;;;;5016134;28;20068;-93
2021/10/29 17:26:28;;;;;;;16.17;11.57;;;6.30;99.90;;;;;;5017129;28;20056;-93
2021/10/29 17:28:55;;;;;;;14.40;11.55;;;6.30;99.90;;;;;;5016862;28;20049;-92